Terminal Aerodrome Forecast
Issued by NWS

Home | Current Version | Previous Version | Text Only | Print | Product List | Glossary On
Versions: 1 2 3 4 5 6 7 8 9 10 11 12
000
FTUS42 TJSJ 251700
TAFJMZ
TAF
TJMZ 251732Z 2518/2618 27010KT P6SM VCSH SCT030 BKN040
      TEMPO 2519/2521 -TSRA BKN030CB
     FM252230 VRB05KT P6SM FEW025
     FM261530 27010KT P6SM SCT025 BKN040=

USA.gov is the U.S. government's official web portal to all federal, state and local government web resources and services.